Time;durP1;ratioP1;P1;durP2;ratioP2;P2;SDS_P1;SDS_P2;PMS_P1;PMS_P2;Temp;Humidity;BMP_temperature;BMP_pressure;BME280_temperature;BME280_humidity;BME280_pressure;Samples;Min_cycle;Max_cycle;Signal;HPM_P1;HPM_P2
2023/08/31 00:01:24;;;;;;;2.17;0.90;;;;;;;;;;5284339;28;20024;-76
2023/08/31 00:03:55;;;;;;;1.52;0.80;;;;;;;;;;5283344;28;20013;-75
2023/08/31 00:06:27;;;;;;;1.58;0.90;;;;;;;;;;5283858;28;20487;-76
2023/08/31 00:08:58;;;;;;;2.88;0.90;;;;;;;;;;5284068;28;20021;-75
2023/08/31 00:11:30;;;;;;;2.70;1.00;;;;;;;;;;5282908;28;20035;-75
2023/08/31 00:14:01;;;;;;;1.77;0.80;;;;;;;;;;5284266;28;20024;-75
2023/08/31 00:16:33;;;;;;;2.20;1.17;;;;;;;;;;5282959;28;20039;-75
2023/08/31 00:19:04;;;;;;;2.67;1.00;;;;;;;;;;5284058;28;20020;-75
2023/08/31 00:21:36;;;;;;;4.20;1.20;;;;;;;;;;5283626;28;20021;-75
2023/08/31 00:24:09;;;;;;;2.47;1.30;;;;;;;;;;5283116;28;20012;-75
2023/08/31 00:26:42;;;;;;;3.40;1.48;;;;;;;;;;5283508;28;20410;-75
2023/08/31 00:29:16;;;;;;;2.17;1.40;;;;;;;;;;5283907;28;20017;-75
2023/08/31 00:31:48;;;;;;;2.33;1.10;;;;;;;;;;5282399;28;20463;-74
2023/08/31 00:34:19;;;;;;;3.25;1.58;;;;;;;;;;5283757;28;20012;-74
2023/08/31 00:36:50;;;;;;;4.22;1.35;;;;;;;;;;5283051;28;20430;-74
2023/08/31 00:39:22;;;;;;;3.10;1.83;;;;;;;;;;5283066;28;20023;-74
2023/08/31 00:41:53;;;;;;;3.60;1.70;;;;;;;;;;5282972;28;20044;-74
2023/08/31 00:44:24;;;;;;;3.65;1.58;;;;;;;;;;5282725;28;20025;-74
2023/08/31 00:46:55;;;;;;;4.05;1.67;;;;;;;;;;5283246;28;20027;-74
2023/08/31 00:49:27;;;;;;;2.97;1.58;;;;;;;;;;5283259;28;20074;-74
2023/08/31 00:51:59;;;;;;;3.08;1.70;;;;;;;;;;5282274;28;20024;-74
2023/08/31 00:54:31;;;;;;;2.30;1.55;;;;;;;;;;5282848;28;20008;-74
2023/08/31 00:57:03;;;;;;;2.85;1.25;;;;;;;;;;5283270;28;20537;-74
2023/08/31 00:59:35;;;;;;;3.55;1.48;;;;;;;;;;5281323;28;20025;-74
2023/08/31 01:02:20;;;;;;;2.33;1.52;;;;;;;;;;5283320;28;20383;-74
2023/08/31 01:04:58;;;;;;;2.03;1.20;;;;;;;;;;5282576;28;20024;-74
2023/08/31 01:07:30;;;;;;;2.55;1.65;;;;;;;;;;5281669;28;20126;-74
2023/08/31 01:10:11;;;;;;;2.38;1.60;;;;;;;;;;5283183;28;20491;-74
2023/08/31 01:13:02;;;;;;;3.08;1.75;;;;;;;;;;5281647;28;20051;-75
2023/08/31 01:15:33;;;;;;;6.57;1.90;;;;;;;;;;5282248;28;20020;-75
2023/08/31 01:18:05;;;;;;;2.30;1.65;;;;;;;;;;5283007;28;20099;-74
2023/08/31 01:21:02;;;;;;;3.45;1.85;;;;;;;;;;5281506;28;20062;-74
2023/08/31 01:24:03;;;;;;;3.00;1.50;;;;;;;;;;5273454;28;20056;-74
2023/08/31 01:26:35;;;;;;;3.85;2.15;;;;;;;;;;5276817;28;20450;-75
2023/08/31 01:29:06;;;;;;;3.63;1.70;;;;;;;;;;5282807;28;20107;-75
2023/08/31 01:31:47;;;;;;;2.67;1.80;;;;;;;;;;5281940;28;20020;-75
2023/08/31 01:34:18;;;;;;;2.10;1.60;;;;;;;;;;5281906;28;20019;-74
2023/08/31 01:36:53;;;;;;;3.47;1.48;;;;;;;;;;5282083;28;20036;-75
2023/08/31 01:39:29;;;;;;;3.53;1.50;;;;;;;;;;5282397;28;20047;-75
2023/08/31 01:42:02;;;;;;;5.18;2.15;;;;;;;;;;5281786;28;20040;-75
2023/08/31 01:44:35;;;;;;;3.10;2.33;;;;;;;;;;5281699;28;20021;-75
2023/08/31 01:47:07;;;;;;;2.05;1.85;;;;;;;;;;5282575;28;20386;-75
2023/08/31 01:49:39;;;;;;;3.13;2.40;;;;;;;;;;5280926;28;20032;-75
2023/08/31 01:52:10;;;;;;;2.85;2.20;;;;;;;;;;5282404;28;20021;-75
2023/08/31 01:54:41;;;;;;;3.35;2.05;;;;;;;;;;5281494;28;20426;-75
2023/08/31 01:57:13;;;;;;;5.00;2.60;;;;;;;;;;5281901;28;20017;-75
2023/08/31 01:59:44;;;;;;;3.33;2.22;;;;;;;;;;5281928;28;20032;-74
2023/08/31 02:02:15;;;;;;;3.67;2.40;;;;;;;;;;5281545;28;20036;-74
2023/08/31 02:04:46;;;;;;;4.00;2.80;;;;;;;;;;5281614;28;20263;-74
2023/08/31 02:07:18;;;;;;;3.03;2.20;;;;;;;;;;5282016;28;20132;-74
2023/08/31 02:09:49;;;;;;;3.80;2.45;;;;;;;;;;5280350;28;20020;-74
2023/08/31 02:12:20;;;;;;;4.13;2.88;;;;;;;;;;5282174;28;20353;-74
2023/08/31 02:14:52;;;;;;;3.13;2.30;;;;;;;;;;5281417;28;20024;-74
2023/08/31 02:17:23;;;;;;;6.07;3.50;;;;;;;;;;5281248;28;20028;-74
2023/08/31 02:19:54;;;;;;;3.78;3.22;;;;;;;;;;5281713;28;20025;-74
2023/08/31 02:22:25;;;;;;;3.28;2.70;;;;;;;;;;5281917;28;20374;-74
2023/08/31 02:24:56;;;;;;;4.03;3.20;;;;;;;;;;5281001;28;20024;-74
2023/08/31 02:27:28;;;;;;;4.47;3.10;;;;;;;;;;5281812;28;20025;-74
2023/08/31 02:29:59;;;;;;;3.17;2.88;;;;;;;;;;5280852;28;20016;-74
2023/08/31 02:32:30;;;;;;;3.65;2.75;;;;;;;;;;5281128;28;20032;-74
2023/08/31 02:35:02;;;;;;;3.25;2.65;;;;;;;;;;5282070;28;20433;-74
2023/08/31 02:37:33;;;;;;;3.35;2.63;;;;;;;;;;5280410;28;20099;-74
2023/08/31 02:40:08;;;;;;;4.15;2.63;;;;;;;;;;5281925;28;20365;-75
2023/08/31 02:42:39;;;;;;;4.78;3.03;;;;;;;;;;5281272;28;20029;-75
2023/08/31 02:45:10;;;;;;;3.85;3.30;;;;;;;;;;5281043;28;20033;-74
2023/08/31 02:47:42;;;;;;;6.28;5.18;;;;;;;;;;5281491;28;20013;-75
2023/08/31 02:50:13;;;;;;;7.70;5.85;;;;;;;;;;5281696;28;20025;-74
2023/08/31 02:52:44;;;;;;;7.00;6.40;;;;;;;;;;5280396;28;20032;-75
2023/08/31 02:55:15;;;;;;;9.52;7.75;;;;;;;;;;5281545;28;20059;-74
2023/08/31 02:57:46;;;;;;;10.40;9.35;;;;;;;;;;5281276;28;20425;-74
2023/08/31 03:00:21;;;;;;;11.13;9.80;;;;;;;;;;5280998;28;20056;-74
2023/08/31 03:02:52;;;;;;;13.05;11.75;;;;;;;;;;5281067;28;20023;-74
2023/08/31 03:05:24;;;;;;;13.13;11.35;;;;;;;;;;5280509;28;20033;-74
2023/08/31 03:07:56;;;;;;;13.27;11.05;;;;;;;;;;5280950;28;20059;-74
2023/08/31 03:10:28;;;;;;;11.57;10.38;;;;;;;;;;5281421;28;20460;-75
2023/08/31 03:12:59;;;;;;;11.65;10.55;;;;;;;;;;5280414;28;20028;-74
2023/08/31 03:15:32;;;;;;;11.43;10.32;;;;;;;;;;5280966;28;20056;-74
2023/08/31 03:18:03;;;;;;;10.27;9.00;;;;;;;;;;5281415;28;20025;-74
2023/08/31 03:20:35;;;;;;;9.48;8.25;;;;;;;;;;5280027;28;20031;-74
2023/08/31 03:23:06;;;;;;;7.65;6.95;;;;;;;;;;5284997;28;20046;-74
2023/08/31 03:25:37;;;;;;;7.72;6.88;;;;;;;;;;5284749;28;20025;-74
2023/08/31 03:28:09;;;;;;;8.13;7.30;;;;;;;;;;5284391;28;20024;-74
2023/08/31 03:30:40;;;;;;;8.40;7.60;;;;;;;;;;5284417;28;20025;-75
2023/08/31 03:33:12;;;;;;;8.48;7.68;;;;;;;;;;5284356;28;20348;-75
2023/08/31 03:35:43;;;;;;;9.50;8.68;;;;;;;;;;5284580;28;20074;-75
2023/08/31 03:38:14;;;;;;;9.35;8.45;;;;;;;;;;5284927;28;20028;-74
2023/08/31 03:40:52;;;;;;;10.75;9.55;;;;;;;;;;5283494;28;20487;-74
2023/08/31 03:43:23;;;;;;;10.30;9.50;;;;;;;;;;5284546;28;20382;-75
2023/08/31 03:45:55;;;;;;;12.55;11.10;;;;;;;;;;5284638;28;20095;-74
2023/08/31 03:48:26;;;;;;;12.80;11.52;;;;;;;;;;5283882;28;20077;-75
2023/08/31 03:50:58;;;;;;;14.55;12.77;;;;;;;;;;5284335;28;20012;-75
2023/08/31 03:53:29;;;;;;;13.48;12.15;;;;;;;;;;5284089;28;20031;-74
2023/08/31 03:56:00;;;;;;;15.25;12.98;;;;;;;;;;5283681;28;20017;-75
2023/08/31 03:58:31;;;;;;;14.52;13.13;;;;;;;;;;5283913;28;20075;-75
2023/08/31 04:01:03;;;;;;;14.77;12.35;;;;;;;;;;5284571;28;20016;-75
2023/08/31 04:03:36;;;;;;;14.60;13.10;;;;;;;;;;5282920;28;20024;-75
2023/08/31 04:06:07;;;;;;;15.40;13.90;;;;;;;;;;5284241;28;20544;-75
2023/08/31 04:08:38;;;;;;;14.48;13.05;;;;;;;;;;5283169;28;20351;-74
2023/08/31 04:11:09;;;;;;;13.85;12.13;;;;;;;;;;5284395;28;20020;-75
2023/08/31 04:13:40;;;;;;;13.57;12.18;;;;;;;;;;5283711;28;20036;-75
2023/08/31 04:16:12;;;;;;;12.18;11.02;;;;;;;;;;5283354;28;20024;-75
2023/08/31 04:18:43;;;;;;;12.20;11.10;;;;;;;;;;5283422;28;20500;-75
2023/08/31 04:21:14;;;;;;;10.45;9.43;;;;;;;;;;5284247;28;20073;-75
2023/08/31 04:23:45;;;;;;;10.10;9.20;;;;;;;;;;5282549;28;20048;-75
2023/08/31 04:26:17;;;;;;;10.52;9.38;;;;;;;;;;5284134;28;20020;-75
2023/08/31 04:28:48;;;;;;;9.48;8.57;;;;;;;;;;5283311;28;20025;-75
2023/08/31 04:31:19;;;;;;;9.63;8.27;;;;;;;;;;5282973;28;20490;-75
2023/08/31 04:33:53;;;;;;;9.85;8.38;;;;;;;;;;5283159;28;20125;-75
2023/08/31 04:36:25;;;;;;;8.18;7.40;;;;;;;;;;5283505;28;20025;-75
2023/08/31 04:38:56;;;;;;;7.85;7.05;;;;;;;;;;5282723;28;20021;-75
2023/08/31 04:41:28;;;;;;;6.90;6.30;;;;;;;;;;5283159;28;20027;-75
2023/08/31 04:43:59;;;;;;;7.70;6.78;;;;;;;;;;5282285;28;20024;-75
2023/08/31 04:46:30;;;;;;;9.18;6.75;;;;;;;;;;5282912;28;20550;-75
2023/08/31 04:49:01;;;;;;;6.72;5.75;;;;;;;;;;5283257;28;20017;-76
2023/08/31 04:51:34;;;;;;;7.40;5.57;;;;;;;;;;5281796;28;20022;-76
2023/08/31 04:54:05;;;;;;;7.90;5.35;;;;;;;;;;5283230;28;20025;-76
2023/08/31 04:56:37;;;;;;;6.75;4.75;;;;;;;;;;5282764;28;20013;-75
2023/08/31 04:59:08;;;;;;;7.13;5.32;;;;;;;;;;5282501;28;20047;-75
2023/08/31 05:01:39;;;;;;;8.13;4.35;;;;;;;;;;5282455;28;20023;-74
2023/08/31 05:04:10;;;;;;;7.30;5.35;;;;;;;;;;5283002;28;20388;-75
2023/08/31 05:06:42;;;;;;;6.20;4.53;;;;;;;;;;5281126;28;20086;-75
2023/08/31 05:09:13;;;;;;;6.20;4.35;;;;;;;;;;5282917;28;20056;-75
2023/08/31 05:11:44;;;;;;;9.98;4.90;;;;;;;;;;5281537;28;20030;-75
2023/08/31 05:14:15;;;;;;;5.60;3.70;;;;;;;;;;5282852;28;20033;-75
2023/08/31 05:16:47;;;;;;;3.22;2.92;;;;;;;;;;5282165;28;20008;-75
2023/08/31 05:19:18;;;;;;;4.20;3.42;;;;;;;;;;5281722;28;20036;-75
2023/08/31 05:21:49;;;;;;;5.75;3.20;;;;;;;;;;5282233;28;20103;-74
2023/08/31 05:24:21;;;;;;;5.03;3.28;;;;;;;;;;5282802;28;20044;-75
2023/08/31 05:26:52;;;;;;;4.32;3.03;;;;;;;;;;5281112;28;20013;-75
2023/08/31 05:29:23;;;;;;;3.30;2.78;;;;;;;;;;5282275;28;20425;-75
2023/08/31 05:31:54;;;;;;;4.50;2.90;;;;;;;;;;5282076;28;20033;-76
2023/08/31 05:34:25;;;;;;;3.60;2.53;;;;;;;;;;5281528;28;20274;-75
2023/08/31 05:36:57;;;;;;;5.88;3.25;;;;;;;;;;5282146;28;20051;-76
2023/08/31 05:39:28;;;;;;;4.40;2.72;;;;;;;;;;5282123;28;20016;-76
2023/08/31 05:41:59;;;;;;;5.05;2.88;;;;;;;;;;5281200;28;20383;-75
2023/08/31 05:44:30;;;;;;;4.30;2.38;;;;;;;;;;5281096;28;20028;-77
2023/08/31 05:47:03;;;;;;;3.30;3.00;;;;;;;;;;5281629;28;20475;-76
2023/08/31 05:49:34;;;;;;;3.72;2.40;;;;;;;;;;5281739;28;20031;-76
2023/08/31 05:52:06;;;;;;;4.88;2.50;;;;;;;;;;5281951;28;20025;-76
2023/08/31 05:54:37;;;;;;;4.65;2.85;;;;;;;;;;5280735;28;20375;-77
2023/08/31 05:57:08;;;;;;;5.15;2.40;;;;;;;;;;5282006;28;20027;-76
2023/08/31 05:59:39;;;;;;;4.00;2.85;;;;;;;;;;5281562;28;20463;-75
2023/08/31 06:02:10;;;;;;;3.45;2.22;;;;;;;;;;5281421;28;20048;-75
2023/08/31 06:04:42;;;;;;;3.40;2.30;;;;;;;;;;5281590;28;20021;-76
2023/08/31 06:07:13;;;;;;;3.67;2.65;;;;;;;;;;5282132;28;20071;-76
2023/08/31 06:09:44;;;;;;;2.78;2.20;;;;;;;;;;5280978;28;20592;-76
2023/08/31 06:12:15;;;;;;;3.60;2.08;;;;;;;;;;5282038;28;20040;-76
2023/08/31 06:14:46;;;;;;;4.30;2.22;;;;;;;;;;5281290;28;20021;-76
2023/08/31 06:17:18;;;;;;;2.42;1.80;;;;;;;;;;5281190;28;20494;-76
2023/08/31 06:19:49;;;;;;;4.13;2.45;;;;;;;;;;5281575;28;20021;-75
2023/08/31 06:22:22;;;;;;;4.45;2.20;;;;;;;;;;5281263;28;20052;-76
2023/08/31 06:24:54;;;;;;;3.65;2.00;;;;;;;;;;5281288;28;20381;-76
2023/08/31 06:27:25;;;;;;;4.90;2.40;;;;;;;;;;5281769;28;20024;-76
2023/08/31 06:29:56;;;;;;;5.45;2.70;;;;;;;;;;5280599;28;20091;-75
2023/08/31 06:32:27;;;;;;;4.43;2.10;;;;;;;;;;5281466;28;20029;-76
2023/08/31 06:34:58;;;;;;;2.83;1.95;;;;;;;;;;5281461;28;20525;-75
2023/08/31 06:37:30;;;;;;;5.15;2.72;;;;;;;;;;5280549;28;20490;-76
2023/08/31 06:40:01;;;;;;;5.68;2.25;;;;;;;;;;5281602;28;20021;-76
2023/08/31 06:42:32;;;;;;;3.45;2.22;;;;;;;;;;5280982;28;20070;-76
2023/08/31 06:45:05;;;;;;;4.03;2.00;;;;;;;;;;5281104;28;20586;-75
2023/08/31 06:47:36;;;;;;;4.80;2.15;;;;;;;;;;5281204;28;20025;-76
2023/08/31 06:50:07;;;;;;;4.43;2.63;;;;;;;;;;5280977;28;20025;-76
2023/08/31 06:52:40;;;;;;;3.90;1.80;;;;;;;;;;5280834;28;20376;-74
2023/08/31 06:55:12;;;;;;;3.60;2.05;;;;;;;;;;5281542;28;20020;-75
2023/08/31 06:57:43;;;;;;;5.28;2.63;;;;;;;;;;5283347;28;20112;-75
2023/08/31 07:00:15;;;;;;;3.38;2.17;;;;;;;;;;5285562;28;20364;-75
2023/08/31 07:02:46;;;;;;;4.43;2.45;;;;;;;;;;5284910;28;20024;-75
2023/08/31 07:05:20;;;;;;;3.78;2.47;;;;;;;;;;5284698;28;20111;-76
2023/08/31 07:07:52;;;;;;;4.30;2.55;;;;;;;;;;5284488;28;20125;-75
2023/08/31 07:10:24;;;;;;;4.85;2.58;;;;;;;;;;5285139;28;20024;-75
2023/08/31 07:12:55;;;;;;;6.28;2.55;;;;;;;;;;5284219;28;20028;-75
2023/08/31 07:15:26;;;;;;;4.88;2.20;;;;;;;;;;5285006;28;20048;-74
2023/08/31 07:17:57;;;;;;;3.67;2.00;;;;;;;;;;5284764;28;20028;-75
2023/08/31 07:20:29;;;;;;;6.18;2.45;;;;;;;;;;5284390;28;20082;-75
2023/08/31 07:23:00;;;;;;;6.53;2.13;;;;;;;;;;5284716;28;20047;-74
2023/08/31 07:25:31;;;;;;;3.83;2.30;;;;;;;;;;5283750;28;20488;-75
2023/08/31 07:28:03;;;;;;;5.53;2.58;;;;;;;;;;5284932;28;20031;-75
2023/08/31 07:30:34;;;;;;;6.25;2.38;;;;;;;;;;5284684;28;20016;-75
2023/08/31 07:33:05;;;;;;;3.95;2.30;;;;;;;;;;5283972;28;20052;-75
2023/08/31 07:35:38;;;;;;;3.42;1.83;;;;;;;;;;5284394;28;20019;-75
2023/08/31 07:38:09;;;;;;;4.78;2.45;;;;;;;;;;5284404;28;20032;-75
2023/08/31 07:40:41;;;;;;;3.45;2.67;;;;;;;;;;5283332;28;20013;-76
2023/08/31 07:43:13;;;;;;;5.28;2.30;;;;;;;;;;5284780;28;20032;-74
2023/08/31 07:45:44;;;;;;;4.00;2.55;;;;;;;;;;5284622;28;20016;-74
2023/08/31 07:48:15;;;;;;;4.30;2.07;;;;;;;;;;5284197;28;20029;-74
2023/08/31 07:50:48;;;;;;;5.25;2.05;;;;;;;;;;5283977;28;20305;-74
2023/08/31 07:53:19;;;;;;;3.50;1.83;;;;;;;;;;5284709;28;20056;-74
2023/08/31 07:55:54;;;;;;;4.10;1.75;;;;;;;;;;5283744;28;20048;-74
2023/08/31 07:58:26;;;;;;;4.75;2.28;;;;;;;;;;5284381;28;20432;-74
2023/08/31 08:00:57;;;;;;;5.65;2.20;;;;;;;;;;5285626;28;20072;-74
2023/08/31 08:03:31;;;;;;;3.53;1.88;;;;;;;;;;5284174;28;20024;-74
2023/08/31 08:06:03;;;;;;;5.75;2.50;;;;;;;;;;5285401;28;20024;-75
2023/08/31 08:08:34;;;;;;;7.28;2.60;;;;;;;;;;5282016;28;20047;-75
2023/08/31 08:11:05;;;;;;;4.30;2.15;;;;;;;;;;5284887;28;20075;-75
2023/08/31 08:13:37;;;;;;;5.15;1.83;;;;;;;;;;5283888;28;20050;-74
2023/08/31 08:16:08;;;;;;;5.20;2.20;;;;;;;;;;5284088;28;20020;-75
2023/08/31 08:18:40;;;;;;;4.43;2.08;;;;;;;;;;5282926;28;20032;-75
2023/08/31 08:21:11;;;;;;;4.75;2.25;;;;;;;;;;5286312;28;20017;-75
2023/08/31 08:23:42;;;;;;;3.67;2.70;;;;;;;;;;5286760;28;20423;-74
2023/08/31 08:26:14;;;;;;;5.43;2.50;;;;;;;;;;5289161;28;20263;-75
2023/08/31 08:28:45;;;;;;;7.05;2.67;;;;;;;;;;5286186;28;20017;-74
2023/08/31 08:31:17;;;;;;;5.38;2.92;;;;;;;;;;5288798;28;20043;-74
2023/08/31 08:33:48;;;;;;;6.68;2.65;;;;;;;;;;5291114;28;20479;-74
2023/08/31 08:36:19;;;;;;;8.23;2.90;;;;;;;;;;5289537;28;20097;-74
2023/08/31 08:38:50;;;;;;;4.78;2.28;;;;;;;;;;5286487;28;20091;-75
2023/08/31 08:41:23;;;;;;;6.43;2.80;;;;;;;;;;5286142;28;20077;-75
2023/08/31 08:43:55;;;;;;;6.18;3.10;;;;;;;;;;5283764;28;20025;-76
2023/08/31 08:46:27;;;;;;;7.47;2.63;;;;;;;;;;5283686;28;20432;-73
2023/08/31 08:49:00;;;;;;;5.72;2.85;;;;;;;;;;5285778;28;20103;-72
2023/08/31 08:51:32;;;;;;;4.95;2.30;;;;;;;;;;5283405;28;20087;-72
2023/08/31 08:54:03;;;;;;;7.15;2.25;;;;;;;;;;5285238;28;20084;-74
2023/08/31 08:56:34;;;;;;;3.88;1.65;;;;;;;;;;5286638;28;20104;-73
2023/08/31 08:59:05;;;;;;;4.43;2.10;;;;;;;;;;5286654;28;20008;-73
2023/08/31 09:01:37;;;;;;;6.50;2.65;;;;;;;;;;5285490;28;20029;-72
2023/08/31 09:04:11;;;;;;;3.42;1.60;;;;;;;;;;5283452;28;20021;-74
2023/08/31 09:06:42;;;;;;;3.88;1.50;;;;;;;;;;5283724;28;20044;-76
2023/08/31 09:09:14;;;;;;;5.68;1.85;;;;;;;;;;5283594;28;20023;-76
2023/08/31 09:11:45;;;;;;;3.45;1.60;;;;;;;;;;5282294;28;20077;-76
2023/08/31 09:14:17;;;;;;;5.95;2.10;;;;;;;;;;5282545;28;20463;-76
2023/08/31 09:16:50;;;;;;;3.85;1.20;;;;;;;;;;5282380;28;20094;-76
2023/08/31 09:19:23;;;;;;;3.78;2.05;;;;;;;;;;5281440;28;20047;-77
2023/08/31 09:21:56;;;;;;;4.68;1.30;;;;;;;;;;5282628;28;20078;-76
2023/08/31 09:24:27;;;;;;;5.03;1.17;;;;;;;;;;5282747;28;20012;-77
2023/08/31 09:26:58;;;;;;;3.33;1.02;;;;;;;;;;5282026;28;20028;-75
2023/08/31 09:29:30;;;;;;;5.50;1.10;;;;;;;;;;5282060;28;20020;-75
2023/08/31 09:32:02;;;;;;;4.00;1.17;;;;;;;;;;5282275;28;20028;-75
2023/08/31 09:34:34;;;;;;;4.57;1.65;;;;;;;;;;5281791;28;20027;-75
2023/08/31 09:37:06;;;;;;;4.40;1.42;;;;;;;;;;5282333;28;20394;-76
2023/08/31 09:39:41;;;;;;;3.25;1.23;;;;;;;;;;5281043;28;20028;-75
2023/08/31 09:42:12;;;;;;;4.65;1.15;;;;;;;;;;5282611;28;20459;-75
2023/08/31 09:44:44;;;;;;;4.53;1.00;;;;;;;;;;5281741;28;20027;-72
2023/08/31 09:47:19;;;;;;;5.50;0.80;;;;;;;;;;5281552;28;20016;-77
2023/08/31 09:49:50;;;;;;;2.97;0.73;;;;;;;;;;5281587;28;20032;-77
2023/08/31 09:52:22;;;;;;;2.05;0.50;;;;;;;;;;5282255;28;20115;-74
2023/08/31 09:54:54;;;;;;;3.95;0.60;;;;;;;;;;5280524;28;20027;-75
2023/08/31 09:57:25;;;;;;;3.42;0.75;;;;;;;;;;5281857;28;20052;-75
2023/08/31 09:59:57;;;;;;;2.85;0.80;;;;;;;;;;5281697;28;20044;-75
2023/08/31 10:02:29;;;;;;;4.20;0.75;;;;;;;;;;5280933;28;20027;-76
2023/08/31 10:05:00;;;;;;;3.58;0.60;;;;;;;;;;5281717;28;20020;-76
2023/08/31 10:07:32;;;;;;;2.85;0.73;;;;;;;;;;5280620;28;20523;-76
2023/08/31 10:10:03;;;;;;;2.03;0.70;;;;;;;;;;5281879;28;20348;-75
2023/08/31 10:12:35;;;;;;;1.70;0.50;;;;;;;;;;5281233;28;20367;-75
2023/08/31 10:15:06;;;;;;;2.95;0.70;;;;;;;;;;5281093;28;20032;-75
2023/08/31 10:17:39;;;;;;;1.45;0.57;;;;;;;;;;5281631;28;20111;-75
2023/08/31 10:20:19;;;;;;;3.85;0.50;;;;;;;;;;5282105;28;20016;-75
2023/08/31 10:22:51;;;;;;;3.05;0.68;;;;;;;;;;5280590;28;20028;-75
2023/08/31 10:25:22;;;;;;;2.30;0.50;;;;;;;;;;5281931;28;20027;-75
2023/08/31 10:27:54;;;;;;;3.42;0.75;;;;;;;;;;5281580;28;20104;-75
2023/08/31 10:30:26;;;;;;;4.85;0.68;;;;;;;;;;5282030;28;20024;-74
2023/08/31 10:33:09;;;;;;;3.53;0.80;;;;;;;;;;5285916;28;20111;-75
2023/08/31 10:35:54;;;;;;;2.30;0.50;;;;;;;;;;5284375;28;20024;-76
2023/08/31 10:38:27;;;;;;;5.50;0.50;;;;;;;;;;5285901;28;20027;-75
2023/08/31 10:41:21;;;;;;;3.42;0.70;;;;;;;;;;5285922;28;20063;-75
2023/08/31 10:43:52;;;;;;;5.43;0.80;;;;;;;;;;5278880;28;20040;-75
2023/08/31 10:46:26;;;;;;;3.03;0.50;;;;;;;;;;5285514;28;20021;-75
2023/08/31 10:48:59;;;;;;;3.03;0.60;;;;;;;;;;5284113;28;20017;-75
2023/08/31 10:51:31;;;;;;;2.35;0.73;;;;;;;;;;5284524;28;20012;-75
2023/08/31 10:54:15;;;;;;;2.92;0.50;;;;;;;;;;5285799;28;20382;-76
2023/08/31 10:56:55;;;;;;;2.03;0.40;;;;;;;;;;5284385;28;20386;-76
2023/08/31 10:59:41;;;;;;;3.08;0.68;;;;;;;;;;5285448;28;20047;-76
2023/08/31 11:02:32;;;;;;;3.13;0.70;;;;;;;;;;5285700;28;20065;-76
2023/08/31 11:05:16;;;;;;;2.50;0.57;;;;;;;;;;5284657;28;20022;-72
2023/08/31 11:07:48;;;;;;;3.28;0.50;;;;;;;;;;5284484;28;20056;-74
2023/08/31 11:10:20;;;;;;;2.78;0.50;;;;;;;;;;5285108;28;20460;-75
2023/08/31 11:12:53;;;;;;;4.40;0.40;;;;;;;;;;5284814;28;20030;-74
2023/08/31 11:15:34;;;;;;;3.88;0.60;;;;;;;;;;5284858;28;20020;-74
2023/08/31 11:18:05;;;;;;;2.15;0.40;;;;;;;;;;5284771;28;20070;-74
2023/08/31 11:20:37;;;;;;;2.50;0.50;;;;;;;;;;5284214;28;20056;-74
2023/08/31 11:23:08;;;;;;;4.78;0.60;;;;;;;;;;5285170;28;20032;-75
2023/08/31 11:25:39;;;;;;;2.83;0.60;;;;;;;;;;5283717;28;20016;-74
2023/08/31 11:28:11;;;;;;;3.33;0.75;;;;;;;;;;5285757;28;20613;-75
2023/08/31 11:30:44;;;;;;;4.43;0.68;;;;;;;;;;5291876;28;20549;-75
2023/08/31 11:33:15;;;;;;;2.05;0.43;;;;;;;;;;5284528;28;20039;-76
2023/08/31 11:35:47;;;;;;;2.15;0.47;;;;;;;;;;5282915;28;20470;-76
2023/08/31 11:38:19;;;;;;;4.43;0.68;;;;;;;;;;5279786;28;20016;-75
2023/08/31 11:40:50;;;;;;;2.92;0.50;;;;;;;;;;5283319;28;20024;-76
2023/08/31 11:43:21;;;;;;;2.90;0.60;;;;;;;;;;5283408;28;20040;-75
2023/08/31 11:45:53;;;;;;;3.60;0.80;;;;;;;;;;5281982;28;20028;-75
2023/08/31 11:48:24;;;;;;;4.13;0.50;;;;;;;;;;5284032;28;20033;-73
2023/08/31 11:50:55;;;;;;;3.13;0.60;;;;;;;;;;5284170;28;20459;-76
2023/08/31 11:53:27;;;;;;;3.38;0.60;;;;;;;;;;5280796;28;20025;-76
2023/08/31 11:56:01;;;;;;;5.18;0.55;;;;;;;;;;5281886;28;20478;-77
2023/08/31 11:58:32;;;;;;;4.13;0.60;;;;;;;;;;5280702;28;20098;-77
2023/08/31 12:01:04;;;;;;;1.58;0.40;;;;;;;;;;5282242;28;20491;-77
2023/08/31 12:03:43;;;;;;;3.42;0.50;;;;;;;;;;5282873;28;20097;-76
2023/08/31 12:06:14;;;;;;;;;;;;;;;;;;5283909;28;20095;-76
2023/08/31 12:08:45;;;;;;;1.95;0.40;;;;;;;;;;5282560;28;20379;-76
2023/08/31 12:11:18;;;;;;;2.20;0.50;;;;;;;;;;5283493;28;20040;-77
2023/08/31 12:13:50;;;;;;;2.22;0.65;;;;;;;;;;5281243;28;20506;-77
2023/08/31 12:16:24;;;;;;;3.58;0.70;;;;;;;;;;5282777;28;20375;-77
2023/08/31 12:18:58;;;;;;;3.38;0.80;;;;;;;;;;5283891;28;20182;-77
2023/08/31 12:21:30;;;;;;;2.35;0.70;;;;;;;;;;5283028;28;20091;-76
2023/08/31 12:24:03;;;;;;;4.68;0.77;;;;;;;;;;5283849;28;20072;-75
2023/08/31 12:26:35;;;;;;;4.10;0.80;;;;;;;;;;5283313;28;20020;-76
2023/08/31 12:29:06;;;;;;;5.32;1.20;;;;;;;;;;5283248;28;20471;-79
2023/08/31 12:31:38;;;;;;;4.22;0.90;;;;;;;;;;5283127;28;20024;-77
2023/08/31 12:34:09;;;;;;;3.85;0.98;;;;;;;;;;5283639;28;20020;-76
2023/08/31 12:36:41;;;;;;;3.55;1.00;;;;;;;;;;5282239;28;20024;-76
2023/08/31 12:39:12;;;;;;;4.22;1.00;;;;;;;;;;5283730;28;20517;-75
2023/08/31 12:41:43;;;;;;;4.72;1.00;;;;;;;;;;5283164;28;20025;-76
2023/08/31 12:44:14;;;;;;;2.47;0.93;;;;;;;;;;5282885;28;20030;-75
2023/08/31 12:46:45;;;;;;;4.40;1.00;;;;;;;;;;5283085;28;20017;-76
2023/08/31 12:49:17;;;;;;;3.88;1.00;;;;;;;;;;5282629;28;20753;-75
2023/08/31 12:51:50;;;;;;;4.60;1.25;;;;;;;;;;5282783;28;20082;-76
2023/08/31 12:54:21;;;;;;;4.55;1.48;;;;;;;;;;5283457;28;20521;-76
2023/08/31 12:56:52;;;;;;;4.25;1.55;;;;;;;;;;5281803;28;20020;-76
2023/08/31 12:59:23;;;;;;;5.97;1.47;;;;;;;;;;5282705;28;20028;-76
2023/08/31 13:01:55;;;;;;;5.60;1.35;;;;;;;;;;5283118;28;20745;-76
2023/08/31 13:04:26;;;;;;;5.85;1.40;;;;;;;;;;5282163;28;20081;-75
2023/08/31 13:06:57;;;;;;;4.18;1.48;;;;;;;;;;5282545;28;20127;-75
2023/08/31 13:09:29;;;;;;;3.63;1.40;;;;;;;;;;5282847;28;20020;-75
2023/08/31 13:12:00;;;;;;;4.78;2.05;;;;;;;;;;5281864;28;20024;-76
2023/08/31 13:14:32;;;;;;;3.33;1.40;;;;;;;;;;5282239;28;20028;-76
2023/08/31 13:17:03;;;;;;;3.40;1.27;;;;;;;;;;5281971;28;20800;-75
2023/08/31 13:19:35;;;;;;;4.00;1.75;;;;;;;;;;5282314;28;20403;-75
2023/08/31 13:22:06;;;;;;;4.53;1.67;;;;;;;;;;5282571;28;20013;-76
2023/08/31 13:24:37;;;;;;;5.30;1.75;;;;;;;;;;5281256;28;20028;-76
2023/08/31 13:27:08;;;;;;;4.00;1.27;;;;;;;;;;5282819;28;20024;-76
2023/08/31 13:29:40;;;;;;;3.13;1.43;;;;;;;;;;5282454;28;20016;-76
2023/08/31 13:32:11;;;;;;;3.03;1.33;;;;;;;;;;5281799;28;20267;-76
2023/08/31 13:34:42;;;;;;;4.30;1.45;;;;;;;;;;5282130;28;20020;-76
2023/08/31 13:37:13;;;;;;;3.95;1.58;;;;;;;;;;5282602;28;20027;-76
2023/08/31 13:39:44;;;;;;;3.50;1.60;;;;;;;;;;5281520;28;20025;-76
2023/08/31 13:42:16;;;;;;;3.03;1.35;;;;;;;;;;5282611;28;20289;-76
2023/08/31 13:44:47;;;;;;;3.35;1.50;;;;;;;;;;5281835;28;20029;-77
2023/08/31 13:47:18;;;;;;;3.00;1.63;;;;;;;;;;5281720;28;20122;-77
2023/08/31 13:49:49;;;;;;;4.27;1.60;;;;;;;;;;5282084;28;20421;-77
2023/08/31 13:52:21;;;;;;;3.80;1.65;;;;;;;;;;5281382;28;20321;-77
2023/08/31 13:54:52;;;;;;;3.08;1.65;;;;;;;;;;5281655;28;20054;-77
2023/08/31 13:57:23;;;;;;;3.90;1.75;;;;;;;;;;5281937;28;20471;-76
2023/08/31 13:59:55;;;;;;;2.97;1.77;;;;;;;;;;5281108;28;20021;-76
2023/08/31 14:02:26;;;;;;;4.30;1.92;;;;;;;;;;5281726;28;20291;-77
2023/08/31 14:04:57;;;;;;;3.60;1.93;;;;;;;;;;5281197;28;20096;-77
2023/08/31 14:07:28;;;;;;;4.95;2.38;;;;;;;;;;5280890;28;20781;-78
2023/08/31 14:10:00;;;;;;;4.60;2.70;;;;;;;;;;5281770;28;20070;-78
2023/08/31 14:12:31;;;;;;;4.72;2.67;;;;;;;;;;5281309;28;20024;-77
2023/08/31 14:15:04;;;;;;;4.32;2.47;;;;;;;;;;5281395;28;20020;-78
2023/08/31 14:17:35;;;;;;;6.70;2.60;;;;;;;;;;5281494;28;20082;-78
2023/08/31 14:20:09;;;;;;;3.70;2.90;;;;;;;;;;5282043;28;20013;-78
2023/08/31 14:22:42;;;;;;;6.63;4.07;;;;;;;;;;5280505;28;20346;-80
2023/08/31 14:25:14;;;;;;;4.95;2.72;;;;;;;;;;5282126;28;20497;-79
2023/08/31 14:27:46;;;;;;;4.18;3.08;;;;;;;;;;5280584;28;20060;-79
2023/08/31 14:30:18;;;;;;;5.55;3.40;;;;;;;;;;5281965;28;20475;-77
2023/08/31 14:32:49;;;;;;;4.55;2.53;;;;;;;;;;5281118;28;20036;-78
2023/08/31 14:35:20;;;;;;;3.95;2.72;;;;;;;;;;5280850;28;20021;-76
2023/08/31 14:37:51;;;;;;;3.78;2.47;;;;;;;;;;5281108;28;20016;-78
2023/08/31 14:40:23;;;;;;;2.77;2.27;;;;;;;;;;5281732;28;20031;-79
2023/08/31 14:42:54;;;;;;;5.70;2.33;;;;;;;;;;5280541;28;20309;-78
2023/08/31 14:45:25;;;;;;;5.65;2.78;;;;;;;;;;5281677;28;20017;-78
2023/08/31 14:47:56;;;;;;;4.07;2.22;;;;;;;;;;5281136;28;20060;-78
2023/08/31 14:50:27;;;;;;;3.83;1.77;;;;;;;;;;5280679;28;20094;-78
2023/08/31 14:52:59;;;;;;;3.30;2.10;;;;;;;;;;5281266;28;20424;-77
2023/08/31 14:55:30;;;;;;;3.75;1.63;;;;;;;;;;5280200;28;20017;-77
2023/08/31 14:58:01;;;;;;;4.93;1.83;;;;;;;;;;5281518;28;20021;-77
2023/08/31 15:00:32;;;;;;;4.65;1.75;;;;;;;;;;5280902;28;20341;-77
2023/08/31 15:03:04;;;;;;;3.35;2.05;;;;;;;;;;5280411;28;20023;-75
2023/08/31 15:05:35;;;;;;;6.35;2.33;;;;;;;;;;5280715;28;20399;-75
2023/08/31 15:08:06;;;;;;;5.32;2.00;;;;;;;;;;5281197;28;20387;-75
2023/08/31 15:10:39;;;;;;;6.70;2.45;;;;;;;;;;5280148;28;20478;-75